Aviation Digital Data Service (ADDS)

Output produced by METARs form (1502 UTC 22 April 2019)
found at http://www.aviationweather.gov/metar/data/
 
METAR text: ZWWW 221430Z 29003MPS 9999 -RA FEW011 OVC020 11/10 Q1020 NOSIG
Conditions at: ZWWW (URUM-QI/DIWOPU , CN) observed 1430 UTC 22 April 2019
Temperature: 11.0°C (52°F)
Dewpoint: 10.0°C (50°F) [RH = 94%]
Pressure (altimeter): 30.12 inches Hg (1020.0 mb)
Winds: from the WNW (290 degrees) at 7 MPH (6 knots; 3.1 m/s)
Visibility: 6 or more miles (10+ km)
Ceiling: 2000 feet AGL
Clouds: few clouds at 1100 feet AGL
overcast cloud deck at 2000 feet AGL
Weather: -RA  (light rain)

METAR text: ZWWW 221400Z 31004MPS 9999 -RA FEW011 OVC020 11/10 Q1020 NOSIG
Conditions at: ZWWW (URUM-QI/DIWOPU , CN) observed 1400 UTC 22 April 2019
Temperature: 11.0°C (52°F)
Dewpoint: 10.0°C (50°F) [RH = 94%]
Pressure (altimeter): 30.12 inches Hg (1020.0 mb)
Winds: from the NW (310 degrees) at 9 MPH (8 knots; 4.1 m/s)
Visibility: 6 or more miles (10+ km)
Ceiling: 2000 feet AGL
Clouds: few clouds at 1100 feet AGL
overcast cloud deck at 2000 feet AGL
Weather: -RA  (light rain)

METAR text: ZWWW 221330Z 32003MPS 9999 -RA FEW011 OVC023 11/09 Q1019 NOSIG
Conditions at: ZWWW (URUM-QI/DIWOPU , CN) observed 1330 UTC 22 April 2019
Temperature: 11.0°C (52°F)
Dewpoint: 9.0°C (48°F) [RH = 87%]
Pressure (altimeter): 30.09 inches Hg (1019.0 mb)
Winds: from the NW (320 degrees) at 7 MPH (6 knots; 3.1 m/s)
Visibility: 6 or more miles (10+ km)
Ceiling: 2300 feet AGL
Clouds: few clouds at 1100 feet AGL
overcast cloud deck at 2300 feet AGL
Weather: -RA  (light rain)

METAR text: ZWWW 221300Z 22002MPS 180V260 9999 -RA FEW011 BKN023 12/09 Q1018 NOSIG
Conditions at: ZWWW (URUM-QI/DIWOPU , CN) observed 1300 UTC 22 April 2019
Temperature: 12.0°C (54°F)
Dewpoint: 9.0°C (48°F) [RH = 82%]
Pressure (altimeter): 30.06 inches Hg (1018.0 mb)
Winds: from the SW (220 degrees) at 5 MPH (4 knots; 2.1 m/s)
Visibility: 6 or more miles (10+ km)
Ceiling: 2300 feet AGL
Clouds: few clouds at 1100 feet AGL
broken clouds at 2300 feet AGL
Weather: -RA  (light rain)

METAR text: ZWWW 221230Z 22003MPS 190V250 9999 -RA BKN023 12/09 Q1018 NOSIG
Conditions at: ZWWW (URUM-QI/DIWOPU , CN) observed 1230 UTC 22 April 2019
Temperature: 12.0°C (54°F)
Dewpoint: 9.0°C (48°F) [RH = 82%]
Pressure (altimeter): 30.06 inches Hg (1018.0 mb)
Winds: from the SW (220 degrees) at 7 MPH (6 knots; 3.1 m/s)
Visibility: 6 or more miles (10+ km)
Ceiling: 2300 feet AGL
Clouds: broken clouds at 2300 feet AGL
Weather: -RA  (light rain)

METAR text: ZWWW 221200Z 28003MPS 9999 -RA BKN023 12/08 Q1018 NOSIG
Conditions at: ZWWW (URUM-QI/DIWOPU , CN) observed 1200 UTC 22 April 2019
Temperature: 12.0°C (54°F)
Dewpoint: 8.0°C (46°F) [RH = 76%]
Pressure (altimeter): 30.06 inches Hg (1018.0 mb)
Winds: from the W (280 degrees) at 7 MPH (6 knots; 3.1 m/s)
Visibility: 6 or more miles (10+ km)
Ceiling: 2300 feet AGL
Clouds: broken clouds at 2300 feet AGL
Weather: -RA  (light rain)

METAR text: ZWWW 221130Z 32004MPS 9999 BKN023 13/07 Q1017 NOSIG
Conditions at: ZWWW (URUM-QI/DIWOPU , CN) observed 1130 UTC 22 April 2019
Temperature: 13.0°C (55°F)
Dewpoint: 7.0°C (45°F) [RH = 67%]
Pressure (altimeter): 30.03 inches Hg (1017.0 mb)
Winds: from the NW (320 degrees) at 9 MPH (8 knots; 4.1 m/s)
Visibility: 6 or more miles (10+ km)
Ceiling: 2300 feet AGL
Clouds: broken clouds at 2300 feet AGL
Weather: no significant weather observed at this time

METAR text: ZWWW 221100Z 33004MPS 9999 BKN030 13/07 Q1017 NOSIG
Conditions at: ZWWW (URUM-QI/DIWOPU , CN) observed 1100 UTC 22 April 2019
Temperature: 13.0°C (55°F)
Dewpoint: 7.0°C (45°F) [RH = 67%]
Pressure (altimeter): 30.03 inches Hg (1017.0 mb)
Winds: from the NNW (330 degrees) at 9 MPH (8 knots; 4.1 m/s)
Visibility: 6 or more miles (10+ km)
Ceiling: 3000 feet AGL
Clouds: broken clouds at 3000 feet AGL
Weather: no significant weather observed at this time

METAR text: ZWWW 221030Z 32006MPS 9999 BKN030 13/08 Q1017 NOSIG
Conditions at: ZWWW (URUM-QI/DIWOPU , CN) observed 1030 UTC 22 April 2019
Temperature: 13.0°C (55°F)
Dewpoint: 8.0°C (46°F) [RH = 72%]
Pressure (altimeter): 30.03 inches Hg (1017.0 mb)
Winds: from the NW (320 degrees) at 14 MPH (12 knots; 6.2 m/s)
Visibility: 6 or more miles (10+ km)
Ceiling: 3000 feet AGL
Clouds: broken clouds at 3000 feet AGL
Weather: no significant weather observed at this time

METAR text: ZWWW 221000Z 32006MPS 9999 SCT040 14/07 Q1016 NOSIG
Conditions at: ZWWW (URUM-QI/DIWOPU , CN) observed 1000 UTC 22 April 2019
Temperature: 14.0°C (57°F)
Dewpoint: 7.0°C (45°F) [RH = 63%]
Pressure (altimeter): 30.00 inches Hg (1016.0 mb)
Winds: from the NW (320 degrees) at 14 MPH (12 knots; 6.2 m/s)
Visibility: 6 or more miles (10+ km)
Ceiling: at least 12,000 feet AGL
Clouds: scattered clouds at 4000 feet AGL
Weather: no significant weather observed at this time

METAR text: ZWWW 220930Z 33006MPS 9999 SCT040 14/07 Q1016 NOSIG
Conditions at: ZWWW (URUM-QI/DIWOPU , CN) observed 0930 UTC 22 April 2019
Temperature: 14.0°C (57°F)
Dewpoint: 7.0°C (45°F) [RH = 63%]
Pressure (altimeter): 30.00 inches Hg (1016.0 mb)
Winds: from the NNW (330 degrees) at 14 MPH (12 knots; 6.2 m/s)
Visibility: 6 or more miles (10+ km)
Ceiling: at least 12,000 feet AGL
Clouds: scattered clouds at 4000 feet AGL
Weather: no significant weather observed at this time

METAR text: ZWWW 220900Z 35005MPS CAVOK 15/07 Q1015 NOSIG
Conditions at: ZWWW (URUM-QI/DIWOPU , CN) observed 0900 UTC 22 April 2019
Temperature: 15.0°C (59°F)
Dewpoint: 7.0°C (45°F) [RH = 59%]
Pressure (altimeter): 29.97 inches Hg (1015.0 mb)
Winds: from the N (350 degrees) at 12 MPH (10 knots; 5.1 m/s)
Visibility: 6 or more miles (10+ km)
Ceiling: ceiling and visibility are OK
Clouds: unknown
Weather: no significant weather observed at this time

METAR text: ZWWW 220830Z 33005MPS CAVOK 16/07 Q1015 NOSIG
Conditions at: ZWWW (URUM-QI/DIWOPU , CN) observed 0830 UTC 22 April 2019
Temperature: 16.0°C (61°F)
Dewpoint: 7.0°C (45°F) [RH = 55%]
Pressure (altimeter): 29.97 inches Hg (1015.0 mb)
Winds: from the NNW (330 degrees) at 12 MPH (10 knots; 5.1 m/s)
Visibility: 6 or more miles (10+ km)
Ceiling: ceiling and visibility are OK
Clouds: unknown
Weather: no significant weather observed at this time

METAR text: ZWWW 220800Z 34004MPS 9999 FEW046 17/07 Q1014 NOSIG
Conditions at: ZWWW (URUM-QI/DIWOPU , CN) observed 0800 UTC 22 April 2019
Temperature: 17.0°C (63°F)
Dewpoint: 7.0°C (45°F) [RH = 52%]
Pressure (altimeter): 29.94 inches Hg (1014.0 mb)
Winds: from the NNW (340 degrees) at 9 MPH (8 knots; 4.1 m/s)
Visibility: 6 or more miles (10+ km)
Ceiling: at least 12,000 feet AGL
Clouds: few clouds at 4600 feet AGL
Weather: no significant weather observed at this time

METAR text: ZWWW 220730Z 33004MPS 9999 -SHRA SCT040 17/07 Q1014 NOSIG
Conditions at: ZWWW (URUM-QI/DIWOPU , CN) observed 0730 UTC 22 April 2019
Temperature: 17.0°C (63°F)
Dewpoint: 7.0°C (45°F) [RH = 52%]
Pressure (altimeter): 29.94 inches Hg (1014.0 mb)
Winds: from the NNW (330 degrees) at 9 MPH (8 knots; 4.1 m/s)
Visibility: 6 or more miles (10+ km)
Ceiling: at least 12,000 feet AGL
Clouds: scattered clouds at 4000 feet AGL
Weather: -SHRA  (light rain showers)

METAR text: ZWWW 220700Z VRB01MPS 9999 -SHRA FEW040 17/07 Q1014 NOSIG
Conditions at: ZWWW (URUM-QI/DIWOPU , CN) observed 0700 UTC 22 April 2019
Temperature: 17.0°C (63°F)
Dewpoint: 7.0°C (45°F) [RH = 52%]
Pressure (altimeter): 29.94 inches Hg (1014.0 mb)
Winds: variable direction winds at 2 MPH (2 knots; 1.0 m/s)
Visibility: 6 or more miles (10+ km)
Ceiling: at least 12,000 feet AGL
Clouds: few clouds at 4000 feet AGL
Weather: -SHRA  (light rain showers)

METAR text: ZWWW 220630Z VRB01MPS CAVOK 17/07 Q1014 NOSIG
Conditions at: ZWWW (URUM-QI/DIWOPU , CN) observed 0630 UTC 22 April 2019
Temperature: 17.0°C (63°F)
Dewpoint: 7.0°C (45°F) [RH = 52%]
Pressure (altimeter): 29.94 inches Hg (1014.0 mb)
Winds: variable direction winds at 2 MPH (2 knots; 1.0 m/s)
Visibility: 6 or more miles (10+ km)
Ceiling: ceiling and visibility are OK
Clouds: unknown
Weather: no significant weather observed at this time

METAR text: ZWWW 220600Z VRB01MPS CAVOK 17/07 Q1014 NOSIG
Conditions at: ZWWW (URUM-QI/DIWOPU , CN) observed 0600 UTC 22 April 2019
Temperature: 17.0°C (63°F)
Dewpoint: 7.0°C (45°F) [RH = 52%]
Pressure (altimeter): 29.94 inches Hg (1014.0 mb)
Winds: variable direction winds at 2 MPH (2 knots; 1.0 m/s)
Visibility: 6 or more miles (10+ km)
Ceiling: ceiling and visibility are OK
Clouds: unknown
Weather: no significant weather observed at this time

METAR text: ZWWW 220530Z 28002MPS 9999 -SHRA NSC 16/07 Q1014 NOSIG
Conditions at: ZWWW (URUM-QI/DIWOPU , CN) observed 0530 UTC 22 April 2019
Temperature: 16.0°C (61°F)
Dewpoint: 7.0°C (45°F) [RH = 55%]
Pressure (altimeter): 29.94 inches Hg (1014.0 mb)
Winds: from the W (280 degrees) at 5 MPH (4 knots; 2.1 m/s)
Visibility: 6 or more miles (10+ km)
Ceiling: at least 12,000 feet AGL
Clouds: sky clear below 12,000 feet AGL
Weather: -SHRA  (light rain showers)

METAR text: ZWWW 220500Z VRB01MPS CAVOK 16/07 Q1014 NOSIG
Conditions at: ZWWW (URUM-QI/DIWOPU , CN) observed 0500 UTC 22 April 2019
Temperature: 16.0°C (61°F)
Dewpoint: 7.0°C (45°F) [RH = 55%]
Pressure (altimeter): 29.94 inches Hg (1014.0 mb)
Winds: variable direction winds at 2 MPH (2 knots; 1.0 m/s)
Visibility: 6 or more miles (10+ km)
Ceiling: ceiling and visibility are OK
Clouds: unknown
Weather: no significant weather observed at this time

METAR text: ZWWW 220430Z 01002MPS 330V050 CAVOK 17/07 Q1014 NOSIG
Conditions at: ZWWW (URUM-QI/DIWOPU , CN) observed 0430 UTC 22 April 2019
Temperature: 17.0°C (63°F)
Dewpoint: 7.0°C (45°F) [RH = 52%]
Pressure (altimeter): 29.94 inches Hg (1014.0 mb)
Winds: from the N (10 degrees) at 5 MPH (4 knots; 2.1 m/s)
Visibility: 6 or more miles (10+ km)
Ceiling: ceiling and visibility are OK
Clouds: unknown
Weather: no significant weather observed at this time

METAR text: ZWWW 220400Z VRB01MPS CAVOK 17/07 Q1014 NOSIG
Conditions at: ZWWW (URUM-QI/DIWOPU , CN) observed 0400 UTC 22 April 2019
Temperature: 17.0°C (63°F)
Dewpoint: 7.0°C (45°F) [RH = 52%]
Pressure (altimeter): 29.94 inches Hg (1014.0 mb)
Winds: variable direction winds at 2 MPH (2 knots; 1.0 m/s)
Visibility: 6 or more miles (10+ km)
Ceiling: ceiling and visibility are OK
Clouds: unknown
Weather: no significant weather observed at this time

METAR text: ZWWW 220330Z 35002MPS 310V030 CAVOK 16/07 Q1014 NOSIG
Conditions at: ZWWW (URUM-QI/DIWOPU , CN) observed 0330 UTC 22 April 2019
Temperature: 16.0°C (61°F)
Dewpoint: 7.0°C (45°F) [RH = 55%]
Pressure (altimeter): 29.94 inches Hg (1014.0 mb)
Winds: from the N (350 degrees) at 5 MPH (4 knots; 2.1 m/s)
Visibility: 6 or more miles (10+ km)
Ceiling: ceiling and visibility are OK
Clouds: unknown
Weather: no significant weather observed at this time

METAR text: ZWWW 220300Z 34003MPS CAVOK 16/07 Q1014 NOSIG
Conditions at: ZWWW (URUM-QI/DIWOPU , CN) observed 0300 UTC 22 April 2019
Temperature: 16.0°C (61°F)
Dewpoint: 7.0°C (45°F) [RH = 55%]
Pressure (altimeter): 29.94 inches Hg (1014.0 mb)
Winds: from the NNW (340 degrees) at 7 MPH (6 knots; 3.1 m/s)
Visibility: 6 or more miles (10+ km)
Ceiling: ceiling and visibility are OK
Clouds: unknown
Weather: no significant weather observed at this time

METAR text: ZWWW 220230Z 34002MPS 300V010 CAVOK 16/06 Q1014 NOSIG
Conditions at: ZWWW (URUM-QI/DIWOPU , CN) observed 0230 UTC 22 April 2019
Temperature: 16.0°C (61°F)
Dewpoint: 6.0°C (43°F) [RH = 51%]
Pressure (altimeter): 29.94 inches Hg (1014.0 mb)
Winds: from the NNW (340 degrees) at 5 MPH (4 knots; 2.1 m/s)
Visibility: 6 or more miles (10+ km)
Ceiling: ceiling and visibility are OK
Clouds: unknown
Weather: no significant weather observed at this time

METAR text: ZWWW 220200Z VRB01MPS CAVOK 15/06 Q1014 NOSIG
Conditions at: ZWWW (URUM-QI/DIWOPU , CN) observed 0200 UTC 22 April 2019
Temperature: 15.0°C (59°F)
Dewpoint: 6.0°C (43°F) [RH = 55%]
Pressure (altimeter): 29.94 inches Hg (1014.0 mb)
Winds: variable direction winds at 2 MPH (2 knots; 1.0 m/s)
Visibility: 6 or more miles (10+ km)
Ceiling: ceiling and visibility are OK
Clouds: unknown
Weather: no significant weather observed at this time

METAR text: ZWWW 220130Z 34001MPS CAVOK 14/06 Q1013 NOSIG
Conditions at: ZWWW (URUM-QI/DIWOPU , CN) observed 0130 UTC 22 April 2019
Temperature: 14.0°C (57°F)
Dewpoint: 6.0°C (43°F) [RH = 58%]
Pressure (altimeter): 29.91 inches Hg (1013.0 mb)
Winds: from the NNW (340 degrees) at 2 MPH (2 knots; 1.0 m/s)
Visibility: 6 or more miles (10+ km)
Ceiling: ceiling and visibility are OK
Clouds: unknown
Weather: no significant weather observed at this time

METAR text: ZWWW 220100Z VRB01MPS CAVOK 14/07 Q1013 NOSIG
Conditions at: ZWWW (URUM-QI/DIWOPU , CN) observed 0100 UTC 22 April 2019
Temperature: 14.0°C (57°F)
Dewpoint: 7.0°C (45°F) [RH = 63%]
Pressure (altimeter): 29.91 inches Hg (1013.0 mb)
Winds: variable direction winds at 2 MPH (2 knots; 1.0 m/s)
Visibility: 6 or more miles (10+ km)
Ceiling: ceiling and visibility are OK
Clouds: unknown
Weather: no significant weather observed at this time

METAR text: ZWWW 220030Z VRB01MPS CAVOK 13/06 Q1013 NOSIG
Conditions at: ZWWW (URUM-QI/DIWOPU , CN) observed 0030 UTC 22 April 2019
Temperature: 13.0°C (55°F)
Dewpoint: 6.0°C (43°F) [RH = 62%]
Pressure (altimeter): 29.91 inches Hg (1013.0 mb)
Winds: variable direction winds at 2 MPH (2 knots; 1.0 m/s)
Visibility: 6 or more miles (10+ km)
Ceiling: ceiling and visibility are OK
Clouds: unknown
Weather: no significant weather observed at this time

METAR text: ZWWW 220000Z 21002MPS 170V230 CAVOK 13/06 Q1013 NOSIG
Conditions at: ZWWW (URUM-QI/DIWOPU , CN) observed 0000 UTC 22 April 2019
Temperature: 13.0°C (55°F)
Dewpoint: 6.0°C (43°F) [RH = 62%]
Pressure (altimeter): 29.91 inches Hg (1013.0 mb)
Winds: from the SSW (210 degrees) at 5 MPH (4 knots; 2.1 m/s)
Visibility: 6 or more miles (10+ km)
Ceiling: ceiling and visibility are OK
Clouds: unknown
Weather: no significant weather observed at this time

METAR text: ZWWW 212330Z 17002MPS CAVOK 12/06 Q1012 NOSIG
Conditions at: ZWWW (URUM-QI/DIWOPU , CN) observed 2330 UTC 21 April 2019
Temperature: 12.0°C (54°F)
Dewpoint: 6.0°C (43°F) [RH = 67%]
Pressure (altimeter): 29.88 inches Hg (1012.0 mb)
Winds: from the S (170 degrees) at 5 MPH (4 knots; 2.1 m/s)
Visibility: 6 or more miles (10+ km)
Ceiling: ceiling and visibility are OK
Clouds: unknown
Weather: no significant weather observed at this time

METAR text: ZWWW 212300Z 21002MPS CAVOK 13/06 Q1012 NOSIG
Conditions at: ZWWW (URUM-QI/DIWOPU , CN) observed 2300 UTC 21 April 2019
Temperature: 13.0°C (55°F)
Dewpoint: 6.0°C (43°F) [RH = 62%]
Pressure (altimeter): 29.88 inches Hg (1012.0 mb)
Winds: from the SSW (210 degrees) at 5 MPH (4 knots; 2.1 m/s)
Visibility: 6 or more miles (10+ km)
Ceiling: ceiling and visibility are OK
Clouds: unknown
Weather: no significant weather observed at this time

METAR text: ZWWW 212230Z 22002MPS CAVOK 12/06 Q1012 NOSIG
Conditions at: ZWWW (URUM-QI/DIWOPU , CN) observed 2230 UTC 21 April 2019
Temperature: 12.0°C (54°F)
Dewpoint: 6.0°C (43°F) [RH = 67%]
Pressure (altimeter): 29.88 inches Hg (1012.0 mb)
Winds: from the SW (220 degrees) at 5 MPH (4 knots; 2.1 m/s)
Visibility: 6 or more miles (10+ km)
Ceiling: ceiling and visibility are OK
Clouds: unknown
Weather: no significant weather observed at this time

METAR text: ZWWW 212200Z 24002MPS CAVOK 13/06 Q1012 NOSIG
Conditions at: ZWWW (URUM-QI/DIWOPU , CN) observed 2200 UTC 21 April 2019
Temperature: 13.0°C (55°F)
Dewpoint: 6.0°C (43°F) [RH = 62%]
Pressure (altimeter): 29.88 inches Hg (1012.0 mb)
Winds: from the WSW (240 degrees) at 5 MPH (4 knots; 2.1 m/s)
Visibility: 6 or more miles (10+ km)
Ceiling: ceiling and visibility are OK
Clouds: unknown
Weather: no significant weather observed at this time

METAR text: ZWWW 212130Z 26003MPS CAVOK 12/06 Q1012 NOSIG
Conditions at: ZWWW (URUM-QI/DIWOPU , CN) observed 2130 UTC 21 April 2019
Temperature: 12.0°C (54°F)
Dewpoint: 6.0°C (43°F) [RH = 67%]
Pressure (altimeter): 29.88 inches Hg (1012.0 mb)
Winds: from the W (260 degrees) at 7 MPH (6 knots; 3.1 m/s)
Visibility: 6 or more miles (10+ km)
Ceiling: ceiling and visibility are OK
Clouds: unknown
Weather: no significant weather observed at this time

METAR text: ZWWW 212100Z 25002MPS CAVOK 12/07 Q1012 NOSIG
Conditions at: ZWWW (URUM-QI/DIWOPU , CN) observed 2100 UTC 21 April 2019
Temperature: 12.0°C (54°F)
Dewpoint: 7.0°C (45°F) [RH = 71%]
Pressure (altimeter): 29.88 inches Hg (1012.0 mb)
Winds: from the WSW (250 degrees) at 5 MPH (4 knots; 2.1 m/s)
Visibility: 6 or more miles (10+ km)
Ceiling: ceiling and visibility are OK
Clouds: unknown
Weather: no significant weather observed at this time

METAR text: ZWWW 212030Z VRB01MPS CAVOK 11/08 Q1011 NOSIG
Conditions at: ZWWW (URUM-QI/DIWOPU , CN) observed 2030 UTC 21 April 2019
Temperature: 11.0°C (52°F)
Dewpoint: 8.0°C (46°F) [RH = 82%]
Pressure (altimeter): 29.85 inches Hg (1011.0 mb)
Winds: variable direction winds at 2 MPH (2 knots; 1.0 m/s)
Visibility: 6 or more miles (10+ km)
Ceiling: ceiling and visibility are OK
Clouds: unknown
Weather: no significant weather observed at this time

METAR text: ZWWW 212000Z 00000MPS CAVOK 12/08 Q1012 NOSIG
Conditions at: ZWWW (URUM-QI/DIWOPU , CN) observed 2000 UTC 21 April 2019
Temperature: 12.0°C (54°F)
Dewpoint: 8.0°C (46°F) [RH = 76%]
Pressure (altimeter): 29.88 inches Hg (1012.0 mb)
Winds: calm
Visibility: 6 or more miles (10+ km)
Ceiling: ceiling and visibility are OK
Clouds: unknown
Weather: no significant weather observed at this time

METAR text: ZWWW 211930Z VRB01MPS CAVOK 13/07 Q1012 NOSIG
Conditions at: ZWWW (URUM-QI/DIWOPU , CN) observed 1930 UTC 21 April 2019
Temperature: 13.0°C (55°F)
Dewpoint: 7.0°C (45°F) [RH = 67%]
Pressure (altimeter): 29.88 inches Hg (1012.0 mb)
Winds: variable direction winds at 2 MPH (2 knots; 1.0 m/s)
Visibility: 6 or more miles (10+ km)
Ceiling: ceiling and visibility are OK
Clouds: unknown
Weather: no significant weather observed at this time

METAR text: ZWWW 211900Z 23002MPS CAVOK 13/08 Q1012 NOSIG
Conditions at: ZWWW (URUM-QI/DIWOPU , CN) observed 1900 UTC 21 April 2019
Temperature: 13.0°C (55°F)
Dewpoint: 8.0°C (46°F) [RH = 72%]
Pressure (altimeter): 29.88 inches Hg (1012.0 mb)
Winds: from the SW (230 degrees) at 5 MPH (4 knots; 2.1 m/s)
Visibility: 6 or more miles (10+ km)
Ceiling: ceiling and visibility are OK
Clouds: unknown
Weather: no significant weather observed at this time

METAR text: ZWWW 211830Z 24002MPS CAVOK 14/08 Q1012 NOSIG
Conditions at: ZWWW (URUM-QI/DIWOPU , CN) observed 1830 UTC 21 April 2019
Temperature: 14.0°C (57°F)
Dewpoint: 8.0°C (46°F) [RH = 67%]
Pressure (altimeter): 29.88 inches Hg (1012.0 mb)
Winds: from the WSW (240 degrees) at 5 MPH (4 knots; 2.1 m/s)
Visibility: 6 or more miles (10+ km)
Ceiling: ceiling and visibility are OK
Clouds: unknown
Weather: no significant weather observed at this time

METAR text: ZWWW 211800Z 18002MPS 160V220 CAVOK 14/08 Q1012 NOSIG
Conditions at: ZWWW (URUM-QI/DIWOPU , CN) observed 1800 UTC 21 April 2019
Temperature: 14.0°C (57°F)
Dewpoint: 8.0°C (46°F) [RH = 67%]
Pressure (altimeter): 29.88 inches Hg (1012.0 mb)
Winds: from the S (180 degrees) at 5 MPH (4 knots; 2.1 m/s)
Visibility: 6 or more miles (10+ km)
Ceiling: ceiling and visibility are OK
Clouds: unknown
Weather: no significant weather observed at this time

METAR text: ZWWW 211730Z VRB01MPS CAVOK 15/09 Q1012 NOSIG
Conditions at: ZWWW (URUM-QI/DIWOPU , CN) observed 1730 UTC 21 April 2019
Temperature: 15.0°C (59°F)
Dewpoint: 9.0°C (48°F) [RH = 67%]
Pressure (altimeter): 29.88 inches Hg (1012.0 mb)
Winds: variable direction winds at 2 MPH (2 knots; 1.0 m/s)
Visibility: 6 or more miles (10+ km)
Ceiling: ceiling and visibility are OK
Clouds: unknown
Weather: no significant weather observed at this time

METAR text: ZWWW 211700Z 00000MPS CAVOK 14/09 Q1012 NOSIG
Conditions at: ZWWW (URUM-QI/DIWOPU , CN) observed 1700 UTC 21 April 2019
Temperature: 14.0°C (57°F)
Dewpoint: 9.0°C (48°F) [RH = 72%]
Pressure (altimeter): 29.88 inches Hg (1012.0 mb)
Winds: calm
Visibility: 6 or more miles (10+ km)
Ceiling: ceiling and visibility are OK
Clouds: unknown
Weather: no significant weather observed at this time

METAR text: ZWWW 211630Z VRB01MPS CAVOK 15/10 Q1012 NOSIG
Conditions at: ZWWW (URUM-QI/DIWOPU , CN) observed 1630 UTC 21 April 2019
Temperature: 15.0°C (59°F)
Dewpoint: 10.0°C (50°F) [RH = 72%]
Pressure (altimeter): 29.88 inches Hg (1012.0 mb)
Winds: variable direction winds at 2 MPH (2 knots; 1.0 m/s)
Visibility: 6 or more miles (10+ km)
Ceiling: ceiling and visibility are OK
Clouds: unknown
Weather: no significant weather observed at this time

METAR text: ZWWW 211600Z 16002MPS 130V190 CAVOK 15/09 Q1011 NOSIG
Conditions at: ZWWW (URUM-QI/DIWOPU , CN) observed 1600 UTC 21 April 2019
Temperature: 15.0°C (59°F)
Dewpoint: 9.0°C (48°F) [RH = 67%]
Pressure (altimeter): 29.85 inches Hg (1011.0 mb)
Winds: from the SSE (160 degrees) at 5 MPH (4 knots; 2.1 m/s)
Visibility: 6 or more miles (10+ km)
Ceiling: ceiling and visibility are OK
Clouds: unknown
Weather: no significant weather observed at this time

METAR text: ZWWW 211530Z 17002MPS CAVOK 16/10 Q1011 NOSIG
Conditions at: ZWWW (URUM-QI/DIWOPU , CN) observed 1530 UTC 21 April 2019
Temperature: 16.0°C (61°F)
Dewpoint: 10.0°C (50°F) [RH = 68%]
Pressure (altimeter): 29.85 inches Hg (1011.0 mb)
Winds: from the S (170 degrees) at 5 MPH (4 knots; 2.1 m/s)
Visibility: 6 or more miles (10+ km)
Ceiling: ceiling and visibility are OK
Clouds: unknown
Weather: no significant weather observed at this time

METAR text: ZWWW 211500Z 16002MPS 100V210 CAVOK 16/09 Q1011 NOSIG
Conditions at: ZWWW (URUM-QI/DIWOPU , CN) observed 1500 UTC 21 April 2019
Temperature: 16.0°C (61°F)
Dewpoint: 9.0°C (48°F) [RH = 63%]
Pressure (altimeter): 29.85 inches Hg (1011.0 mb)
Winds: from the SSE (160 degrees) at 5 MPH (4 knots; 2.1 m/s)
Visibility: 6 or more miles (10+ km)
Ceiling: ceiling and visibility are OK
Clouds: unknown
Weather: no significant weather observed at this time

METAR text: ZWWW 211430Z 18002MPS 140V210 CAVOK 17/10 Q1011 NOSIG
Conditions at: ZWWW (URUM-QI/DIWOPU , CN) observed 1430 UTC 21 April 2019
Temperature: 17.0°C (63°F)
Dewpoint: 10.0°C (50°F) [RH = 63%]
Pressure (altimeter): 29.85 inches Hg (1011.0 mb)
Winds: from the S (180 degrees) at 5 MPH (4 knots; 2.1 m/s)
Visibility: 6 or more miles (10+ km)
Ceiling: ceiling and visibility are OK
Clouds: unknown
Weather: no significant weather observed at this time

METAR text: ZWWW 211400Z VRB01MPS 9999 SCT046 17/09 Q1011 NOSIG
Conditions at: ZWWW (URUM-QI/DIWOPU , CN) observed 1400 UTC 21 April 2019
Temperature: 17.0°C (63°F)
Dewpoint: 9.0°C (48°F) [RH = 59%]
Pressure (altimeter): 29.85 inches Hg (1011.0 mb)
Winds: variable direction winds at 2 MPH (2 knots; 1.0 m/s)
Visibility: 6 or more miles (10+ km)
Ceiling: at least 12,000 feet AGL
Clouds: scattered clouds at 4600 feet AGL
Weather: no significant weather observed at this time

METAR text: ZWWW 211330Z VRB01MPS 9999 -SHRA BKN046 17/08 Q1011 NOSIG
Conditions at: ZWWW (URUM-QI/DIWOPU , CN) observed 1330 UTC 21 April 2019
Temperature: 17.0°C (63°F)
Dewpoint: 8.0°C (46°F) [RH = 55%]
Pressure (altimeter): 29.85 inches Hg (1011.0 mb)
Winds: variable direction winds at 2 MPH (2 knots; 1.0 m/s)
Visibility: 6 or more miles (10+ km)
Ceiling: 4600 feet AGL
Clouds: broken clouds at 4600 feet AGL
Weather: -SHRA  (light rain showers)

METAR text: ZWWW 211300Z VRB01MPS 9999 -SHRA FEW040CB BKN040 17/09 Q1011 NOSIG
Conditions at: ZWWW (URUM-QI/DIWOPU , CN) observed 1300 UTC 21 April 2019
Temperature: 17.0°C (63°F)
Dewpoint: 9.0°C (48°F) [RH = 59%]
Pressure (altimeter): 29.85 inches Hg (1011.0 mb)
Winds: variable direction winds at 2 MPH (2 knots; 1.0 m/s)
Visibility: 6 or more miles (10+ km)
Ceiling: 4000 feet AGL
Clouds: few clouds at 4000 feet AGL
broken clouds at 4000 feet AGL
Weather: -SHRA  (light rain showers)

METAR text: ZWWW 211230Z 33002MPS 300V360 9999 FEW040CB BKN040 17/10 Q1011 NOSIG
Conditions at: ZWWW (URUM-QI/DIWOPU , CN) observed 1230 UTC 21 April 2019
Temperature: 17.0°C (63°F)
Dewpoint: 10.0°C (50°F) [RH = 63%]
Pressure (altimeter): 29.85 inches Hg (1011.0 mb)
Winds: from the NNW (330 degrees) at 5 MPH (4 knots; 2.1 m/s)
Visibility: 6 or more miles (10+ km)
Ceiling: 4000 feet AGL
Clouds: few clouds at 4000 feet AGL
broken clouds at 4000 feet AGL
Weather: no significant weather observed at this time

METAR text: ZWWW 211200Z 23002MPS 180V290 9999 -SHRA BKN040 18/08 Q1011 NOSIG
Conditions at: ZWWW (URUM-QI/DIWOPU , CN) observed 1200 UTC 21 April 2019
Temperature: 18.0°C (64°F)
Dewpoint: 8.0°C (46°F) [RH = 52%]
Pressure (altimeter): 29.85 inches Hg (1011.0 mb)
Winds: from the SW (230 degrees) at 5 MPH (4 knots; 2.1 m/s)
Visibility: 6 or more miles (10+ km)
Ceiling: 4000 feet AGL
Clouds: broken clouds at 4000 feet AGL
Weather: -SHRA  (light rain showers)

METAR text: ZWWW 211130Z 20003MPS 9999 -SHRA BKN040 18/09 Q1011 NOSIG
Conditions at: ZWWW (URUM-QI/DIWOPU , CN) observed 1130 UTC 21 April 2019
Temperature: 18.0°C (64°F)
Dewpoint: 9.0°C (48°F) [RH = 56%]
Pressure (altimeter): 29.85 inches Hg (1011.0 mb)
Winds: from the SSW (200 degrees) at 7 MPH (6 knots; 3.1 m/s)
Visibility: 6 or more miles (10+ km)
Ceiling: 4000 feet AGL
Clouds: broken clouds at 4000 feet AGL
Weather: -SHRA  (light rain showers)

METAR text: ZWWW 211100Z 26002MPS 220V290 9999 -SHRA BKN040 18/09 Q1011 NOSIG
Conditions at: ZWWW (URUM-QI/DIWOPU , CN) observed 1100 UTC 21 April 2019
Temperature: 18.0°C (64°F)
Dewpoint: 9.0°C (48°F) [RH = 56%]
Pressure (altimeter): 29.85 inches Hg (1011.0 mb)
Winds: from the W (260 degrees) at 5 MPH (4 knots; 2.1 m/s)
Visibility: 6 or more miles (10+ km)
Ceiling: 4000 feet AGL
Clouds: broken clouds at 4000 feet AGL
Weather: -SHRA  (light rain showers)

METAR text: ZWWW 211030Z 30004MPS 9999 -SHRA FEW040CB BKN040 19/07 Q1011 NOSIG
Conditions at: ZWWW (URUM-QI/DIWOPU , CN) observed 1030 UTC 21 April 2019
Temperature: 19.0°C (66°F)
Dewpoint: 7.0°C (45°F) [RH = 46%]
Pressure (altimeter): 29.85 inches Hg (1011.0 mb)
Winds: from the WNW (300 degrees) at 9 MPH (8 knots; 4.1 m/s)
Visibility: 6 or more miles (10+ km)
Ceiling: 4000 feet AGL
Clouds: few clouds at 4000 feet AGL
broken clouds at 4000 feet AGL
Weather: -SHRA  (light rain showers)

METAR text: ZWWW 211000Z 31003MPS 9999 FEW040CB 20/05 Q1010 NOSIG
Conditions at: ZWWW (URUM-QI/DIWOPU , CN) observed 1000 UTC 21 April 2019
Temperature: 20.0°C (68°F)
Dewpoint: 5.0°C (41°F) [RH = 37%]
Pressure (altimeter): 29.82 inches Hg (1010.0 mb)
Winds: from the NW (310 degrees) at 7 MPH (6 knots; 3.1 m/s)
Visibility: 6 or more miles (10+ km)
Ceiling: at least 12,000 feet AGL
Clouds: few clouds at 4000 feet AGL
Weather: no significant weather observed at this time

METAR text: ZWWW 210930Z 33004MPS 9999 -SHRA NSC 20/05 Q1010 NOSIG
Conditions at: ZWWW (URUM-QI/DIWOPU , CN) observed 0930 UTC 21 April 2019
Temperature: 20.0°C (68°F)
Dewpoint: 5.0°C (41°F) [RH = 37%]
Pressure (altimeter): 29.82 inches Hg (1010.0 mb)
Winds: from the NNW (330 degrees) at 9 MPH (8 knots; 4.1 m/s)
Visibility: 6 or more miles (10+ km)
Ceiling: at least 12,000 feet AGL
Clouds: sky clear below 12,000 feet AGL
Weather: -SHRA  (light rain showers)

METAR text: ZWWW 210900Z 32003MPS 280V340 CAVOK 20/05 Q1011 NOSIG
Conditions at: ZWWW (URUM-QI/DIWOPU , CN) observed 0900 UTC 21 April 2019
Temperature: 20.0°C (68°F)
Dewpoint: 5.0°C (41°F) [RH = 37%]
Pressure (altimeter): 29.85 inches Hg (1011.0 mb)
Winds: from the NW (320 degrees) at 7 MPH (6 knots; 3.1 m/s)
Visibility: 6 or more miles (10+ km)
Ceiling: ceiling and visibility are OK
Clouds: unknown
Weather: no significant weather observed at this time

METAR text: ZWWW 210830Z 32004MPS 290V360 CAVOK 20/06 Q1011 NOSIG
Conditions at: ZWWW (URUM-QI/DIWOPU , CN) observed 0830 UTC 21 April 2019
Temperature: 20.0°C (68°F)
Dewpoint: 6.0°C (43°F) [RH = 40%]
Pressure (altimeter): 29.85 inches Hg (1011.0 mb)
Winds: from the NW (320 degrees) at 9 MPH (8 knots; 4.1 m/s)
Visibility: 6 or more miles (10+ km)
Ceiling: ceiling and visibility are OK
Clouds: unknown
Weather: no significant weather observed at this time

METAR text: ZWWW 210800Z 31004MPS 270V340 CAVOK 20/06 Q1010 NOSIG
Conditions at: ZWWW (URUM-QI/DIWOPU , CN) observed 0800 UTC 21 April 2019
Temperature: 20.0°C (68°F)
Dewpoint: 6.0°C (43°F) [RH = 40%]
Pressure (altimeter): 29.82 inches Hg (1010.0 mb)
Winds: from the NW (310 degrees) at 9 MPH (8 knots; 4.1 m/s)
Visibility: 6 or more miles (10+ km)
Ceiling: ceiling and visibility are OK
Clouds: unknown
Weather: no significant weather observed at this time

METAR text: ZWWW 210730Z 33004MPS 290V020 CAVOK 20/06 Q1011 NOSIG
Conditions at: ZWWW (URUM-QI/DIWOPU , CN) observed 0730 UTC 21 April 2019
Temperature: 20.0°C (68°F)
Dewpoint: 6.0°C (43°F) [RH = 40%]
Pressure (altimeter): 29.85 inches Hg (1011.0 mb)
Winds: from the NNW (330 degrees) at 9 MPH (8 knots; 4.1 m/s)
Visibility: 6 or more miles (10+ km)
Ceiling: ceiling and visibility are OK
Clouds: unknown
Weather: no significant weather observed at this time

METAR text: ZWWW 210700Z 33004MPS 290V350 CAVOK 20/05 Q1011 NOSIG
Conditions at: ZWWW (URUM-QI/DIWOPU , CN) observed 0700 UTC 21 April 2019
Temperature: 20.0°C (68°F)
Dewpoint: 5.0°C (41°F) [RH = 37%]
Pressure (altimeter): 29.85 inches Hg (1011.0 mb)
Winds: from the NNW (330 degrees) at 9 MPH (8 knots; 4.1 m/s)
Visibility: 6 or more miles (10+ km)
Ceiling: ceiling and visibility are OK
Clouds: unknown
Weather: no significant weather observed at this time

METAR text: ZWWW 210630Z 34003MPS 310V030 CAVOK 19/06 Q1011 NOSIG
Conditions at: ZWWW (URUM-QI/DIWOPU , CN) observed 0630 UTC 21 April 2019
Temperature: 19.0°C (66°F)
Dewpoint: 6.0°C (43°F) [RH = 43%]
Pressure (altimeter): 29.85 inches Hg (1011.0 mb)
Winds: from the NNW (340 degrees) at 7 MPH (6 knots; 3.1 m/s)
Visibility: 6 or more miles (10+ km)
Ceiling: ceiling and visibility are OK
Clouds: unknown
Weather: no significant weather observed at this time

METAR text: ZWWW 210600Z 33004MPS 300V010 CAVOK 19/06 Q1011 NOSIG
Conditions at: ZWWW (URUM-QI/DIWOPU , CN) observed 0600 UTC 21 April 2019
Temperature: 19.0°C (66°F)
Dewpoint: 6.0°C (43°F) [RH = 43%]
Pressure (altimeter): 29.85 inches Hg (1011.0 mb)
Winds: from the NNW (330 degrees) at 9 MPH (8 knots; 4.1 m/s)
Visibility: 6 or more miles (10+ km)
Ceiling: ceiling and visibility are OK
Clouds: unknown
Weather: no significant weather observed at this time

METAR text: ZWWW 210530Z 34003MPS 310V020 CAVOK 19/06 Q1012 NOSIG
Conditions at: ZWWW (URUM-QI/DIWOPU , CN) observed 0530 UTC 21 April 2019
Temperature: 19.0°C (66°F)
Dewpoint: 6.0°C (43°F) [RH = 43%]
Pressure (altimeter): 29.88 inches Hg (1012.0 mb)
Winds: from the NNW (340 degrees) at 7 MPH (6 knots; 3.1 m/s)
Visibility: 6 or more miles (10+ km)
Ceiling: ceiling and visibility are OK
Clouds: unknown
Weather: no significant weather observed at this time

METAR text: ZWWW 210500Z 33003MPS 280V360 CAVOK 19/05 Q1012 NOSIG
Conditions at: ZWWW (URUM-QI/DIWOPU , CN) observed 0500 UTC 21 April 2019
Temperature: 19.0°C (66°F)
Dewpoint: 5.0°C (41°F) [RH = 40%]
Pressure (altimeter): 29.88 inches Hg (1012.0 mb)
Winds: from the NNW (330 degrees) at 7 MPH (6 knots; 3.1 m/s)
Visibility: 6 or more miles (10+ km)
Ceiling: ceiling and visibility are OK
Clouds: unknown
Weather: no significant weather observed at this time

METAR text: ZWWW 210430Z 33003MPS 290V030 CAVOK 18/06 Q1012 NOSIG
Conditions at: ZWWW (URUM-QI/DIWOPU , CN) observed 0430 UTC 21 April 2019
Temperature: 18.0°C (64°F)
Dewpoint: 6.0°C (43°F) [RH = 45%]
Pressure (altimeter): 29.88 inches Hg (1012.0 mb)
Winds: from the NNW (330 degrees) at 7 MPH (6 knots; 3.1 m/s)
Visibility: 6 or more miles (10+ km)
Ceiling: ceiling and visibility are OK
Clouds: unknown
Weather: no significant weather observed at this time

METAR text: ZWWW 210400Z 33003MPS 280V070 CAVOK 18/06 Q1012 NOSIG
Conditions at: ZWWW (URUM-QI/DIWOPU , CN) observed 0400 UTC 21 April 2019
Temperature: 18.0°C (64°F)
Dewpoint: 6.0°C (43°F) [RH = 45%]
Pressure (altimeter): 29.88 inches Hg (1012.0 mb)
Winds: from the NNW (330 degrees) at 7 MPH (6 knots; 3.1 m/s)
Visibility: 6 or more miles (10+ km)
Ceiling: ceiling and visibility are OK
Clouds: unknown
Weather: no significant weather observed at this time

METAR text: ZWWW 210330Z 34002MPS 290V050 CAVOK 18/06 Q1012 NOSIG
Conditions at: ZWWW (URUM-QI/DIWOPU , CN) observed 0330 UTC 21 April 2019
Temperature: 18.0°C (64°F)
Dewpoint: 6.0°C (43°F) [RH = 45%]
Pressure (altimeter): 29.88 inches Hg (1012.0 mb)
Winds: from the NNW (340 degrees) at 5 MPH (4 knots; 2.1 m/s)
Visibility: 6 or more miles (10+ km)
Ceiling: ceiling and visibility are OK
Clouds: unknown
Weather: no significant weather observed at this time

Forecast for: ZWWW (URUM-QI/DIWOPU , CN)
Text: TAF ZWWW 220903Z 2212/2312 33004MPS 6000 -RA BKN020 TX18/2309Z TN11/2223Z
Forecast period: 1200 to 1500 UTC 22 April 2019
Forecast type: FROM: standard forecast or significant change
Winds: from the NNW (330 degrees) at 9 MPH (8 knots; 4.1 m/s)
Visibility: 4 miles (6 km)
Ceiling: 2000 feet AGL
Clouds: broken clouds at 2000 feet AGL
Weather: -RA  (light rain)
Text: BECMG 2215/2216 22004MPS CAVOK
Forecast period: 1500 UTC 22 April 2019 to 0200 UTC 23 April 2019
Forecast type: BECOMING: Conditions expected to become as follows by 1600 UTC 22 April 2019
Winds: from the SW (220 degrees) at 9 MPH (8 knots; 4.1 m/s)
Visibility: 6 or more miles 10+ km)
Ceiling: unknown
Clouds: missing
Weather: NSW  (no significant weather)
Text: BECMG 2302/2303 36004MPS
Forecast period: 0200 to 1200 UTC 23 April 2019
Forecast type: BECOMING: Conditions expected to become as follows by 0300 UTC 23 April 2019
Winds: from the N (360 degrees) at 9 MPH (8 knots; 4.1 m/s)
Visibility: 6 or more miles 10+ km)
Ceiling: unknown
Clouds: missing
Weather: NSW  (no significant weather)